createdAt,value
2023-03-16T00:02:04.557Z,-1.03
2023-03-16T00:04:31.952Z,-0.95
2023-03-16T00:06:58.587Z,-0.98
2023-03-16T00:09:31.066Z,-1.05
2023-03-16T00:11:59.092Z,-1.43
2023-03-16T00:14:26.638Z,-1.60
2023-03-16T00:16:53.411Z,-1.69
2023-03-16T00:19:23.010Z,-1.84
2023-03-16T00:21:51.310Z,-1.94
2023-03-16T00:24:20.881Z,-1.90
2023-03-16T00:26:48.127Z,-1.97
2023-03-16T00:29:15.264Z,-2.10
2023-03-16T00:31:44.124Z,-2.07
2023-03-16T00:34:15.388Z,-2.14
2023-03-16T00:36:42.664Z,-2.33
2023-03-16T00:39:11.820Z,-2.09
2023-03-16T00:41:38.666Z,-1.99
2023-03-16T00:44:06.166Z,-1.86
2023-03-16T00:46:34.346Z,-1.92
2023-03-16T00:49:02.828Z,-1.98
2023-03-16T00:51:33.707Z,-2.00
2023-03-16T00:54:01.939Z,-2.15
2023-03-16T00:56:29.108Z,-2.22
2023-03-16T00:58:57.859Z,-2.31
2023-03-16T01:01:25.191Z,-2.20
2023-03-16T01:03:52.012Z,-2.09
2023-03-16T01:06:20.618Z,-2.13
2023-03-16T01:08:48.002Z,-2.09
2023-03-16T01:11:20.663Z,-1.96
2023-03-16T01:13:49.033Z,-1.92
2023-03-16T01:16:18.949Z,-1.96
2023-03-16T01:18:46.652Z,-1.82
2023-03-16T01:21:16.065Z,-2.00
2023-03-16T01:23:44.275Z,-2.03
2023-03-16T01:26:12.476Z,-2.10
2023-03-16T01:28:39.351Z,-2.13
2023-03-16T01:31:10.219Z,-2.13
2023-03-16T01:33:38.364Z,-2.16
2023-03-16T01:36:13.927Z,-2.03
2023-03-16T01:38:47.869Z,-2.09
2023-03-16T01:41:15.993Z,-2.05
2023-03-16T01:43:43.626Z,-2.08
2023-03-16T01:46:23.121Z,-2.13
2023-03-16T01:49:12.335Z,-2.28
2023-03-16T01:51:58.028Z,-2.35
2023-03-16T01:54:57.111Z,-2.41
2023-03-16T01:57:30.517Z,-2.49
2023-03-16T02:00:08.006Z,-2.51
2023-03-16T02:02:44.219Z,-2.55
2023-03-16T02:05:24.630Z,-2.61
2023-03-16T02:07:58.589Z,-2.55
2023-03-16T02:10:28.983Z,-2.56
2023-03-16T02:12:57.527Z,-2.58
2023-03-16T02:15:25.373Z,-2.63
2023-03-16T02:17:52.944Z,-2.69
2023-03-16T02:20:38.983Z,-2.77
2023-03-16T02:23:08.929Z,-3.02
2023-03-16T02:26:02.540Z,-2.93
2023-03-16T02:28:53.917Z,-2.67
2023-03-16T02:31:22.315Z,-2.43
2023-03-16T02:33:50.914Z,-2.73
2023-03-16T02:36:20.900Z,-2.97
2023-03-16T02:38:48.066Z,-2.97
2023-03-16T02:41:19.186Z,-3.01
2023-03-16T02:43:59.024Z,-3.02
2023-03-16T02:46:35.735Z,-2.98
2023-03-16T02:49:07.577Z,-2.90
2023-03-16T02:51:38.300Z,-2.95
2023-03-16T02:54:05.140Z,-2.85
2023-03-16T02:56:34.452Z,-2.61
2023-03-16T02:59:01.309Z,-2.71
2023-03-16T03:01:29.060Z,-2.73
2023-03-16T03:03:55.873Z,-2.70
2023-03-16T03:06:24.731Z,-2.70
2023-03-16T03:08:51.474Z,-2.62
2023-03-16T03:11:20.989Z,-2.65
2023-03-16T03:13:47.724Z,-2.42
2023-03-16T03:16:18.910Z,-2.28
2023-03-16T03:18:45.695Z,-2.35
2023-03-16T03:21:12.585Z,-2.27
2023-03-16T03:23:40.470Z,-2.34
2023-03-16T03:26:08.130Z,-2.47
2023-03-16T03:28:34.962Z,-2.65
2023-03-16T03:31:01.908Z,-2.71
2023-03-16T03:33:29.359Z,-2.91
2023-03-16T03:35:58.336Z,-2.89
2023-03-16T03:38:27.505Z,-2.98
2023-03-16T03:40:59.571Z,-3.05
2023-03-16T03:43:31.358Z,-3.12
2023-03-16T03:46:00.811Z,-3.16
2023-03-16T03:48:28.452Z,-3.22
2023-03-16T03:50:56.918Z,-3.25
2023-03-16T03:53:37.279Z,-3.27
2023-03-16T03:56:17.877Z,-3.22
2023-03-16T03:58:44.598Z,-3.18
2023-03-16T04:01:14.951Z,-3.35
2023-03-16T04:03:45.051Z,-2.93
2023-03-16T04:06:14.302Z,-2.69
2023-03-16T04:08:41.229Z,-2.57
2023-03-16T04:11:11.925Z,-2.46
2023-03-16T04:13:39.383Z,-2.30
2023-03-16T04:16:06.253Z,-2.28
2023-03-16T04:18:40.470Z,-2.34
2023-03-16T04:21:15.909Z,-2.30
2023-03-16T04:23:43.400Z,-2.31
2023-03-16T04:26:10.429Z,-2.32
2023-03-16T04:28:37.320Z,-2.34
2023-03-16T04:31:10.664Z,-2.40
2023-03-16T04:33:42.434Z,-2.57
2023-03-16T04:36:09.800Z,-2.72
2023-03-16T04:38:38.078Z,-2.91
2023-03-16T04:41:06.409Z,-3.13
2023-03-16T04:43:37.092Z,-3.20
2023-03-16T04:46:11.116Z,-3.36
2023-03-16T04:48:38.355Z,-3.19
2023-03-16T04:51:06.305Z,-3.38
2023-03-16T04:53:37.211Z,-3.53
2023-03-16T04:56:19.657Z,-3.40
2023-03-16T04:58:51.981Z,-3.47
2023-03-16T05:01:20.967Z,-3.58
2023-03-16T05:03:52.891Z,-3.79
2023-03-16T05:06:20.512Z,-3.67
2023-03-16T05:08:47.664Z,-3.65
2023-03-16T05:11:14.513Z,-3.60
2023-03-16T05:13:50.750Z,-3.60
2023-03-16T05:16:18.007Z,-3.64
2023-03-16T05:18:45.981Z,-3.72
2023-03-16T05:21:12.842Z,-3.72
2023-03-16T05:23:53.849Z,-3.70
2023-03-16T05:26:20.777Z,-3.55
2023-03-16T05:28:47.582Z,-3.50
2023-03-16T05:31:21.066Z,-3.39
2023-03-16T05:33:53.520Z,-3.30
2023-03-16T05:36:21.015Z,-3.26
2023-03-16T05:38:52.408Z,-3.23
2023-03-16T05:41:30.172Z,-3.09
2023-03-16T05:44:24.659Z,-2.91
2023-03-16T05:47:09.965Z,-2.80
2023-03-16T05:49:41.539Z,-2.54
2023-03-16T05:52:14.652Z,-2.33
2023-03-16T05:54:43.050Z,-2.15
2023-03-16T05:57:11.394Z,-1.97
2023-03-16T05:59:40.364Z,-1.83
2023-03-16T06:02:10.911Z,-1.65
2023-03-16T06:04:38.011Z,-1.48
2023-03-16T06:07:05.238Z,-1.42
2023-03-16T06:09:32.160Z,-1.57
2023-03-16T06:11:59.768Z,-1.75
2023-03-16T06:14:26.576Z,-1.76
2023-03-16T06:16:55.361Z,-1.59
2023-03-16T06:19:22.180Z,-1.56
2023-03-16T06:21:53.935Z,-1.32
2023-03-16T06:24:21.625Z,-1.08
2023-03-16T06:26:48.335Z,-0.97
2023-03-16T06:29:15.114Z,-0.81
2023-03-16T06:31:42.151Z,-0.73
2023-03-16T06:34:10.211Z,-0.60
2023-03-16T06:36:39.706Z,-0.45
2023-03-16T06:39:10.063Z,-0.31
2023-03-16T06:41:42.809Z,-0.36
2023-03-16T06:44:11.679Z,-0.39
2023-03-16T06:46:50.291Z,-0.07
2023-03-16T06:49:17.069Z,0.24
2023-03-16T06:51:43.803Z,0.58
2023-03-16T06:54:10.581Z,0.78
2023-03-16T06:56:39.667Z,0.92
2023-03-16T06:59:07.002Z,1.30
2023-03-16T07:01:33.747Z,1.65
2023-03-16T07:04:01.932Z,1.94
2023-03-16T07:06:31.478Z,2.05
2023-03-16T07:08:58.589Z,2.09
2023-03-16T07:11:28.031Z,1.91
2023-03-16T07:13:54.782Z,1.85
2023-03-16T07:16:22.995Z,1.96
2023-03-16T07:19:01.806Z,2.08
2023-03-16T07:21:28.378Z,2.31
2023-03-16T07:23:55.833Z,2.51
2023-03-16T07:26:25.910Z,2.58
2023-03-16T07:28:58.745Z,2.73
2023-03-16T07:31:27.427Z,2.81
2023-03-16T07:33:57.508Z,2.96
2023-03-16T07:36:48.822Z,2.94
2023-03-16T07:39:17.800Z,3.04
2023-03-16T07:41:45.123Z,3.27
2023-03-16T07:44:17.509Z,3.36
2023-03-16T07:46:48.213Z,3.65
2023-03-16T07:49:16.819Z,3.72
2023-03-16T07:51:44.575Z,4.21
2023-03-16T07:54:11.963Z,4.75
2023-03-16T07:56:48.447Z,5.36
2023-03-16T07:59:25.791Z,5.99
2023-03-16T08:01:52.510Z,6.43
2023-03-16T08:04:19.423Z,6.30
2023-03-16T08:06:47.914Z,5.94
2023-03-16T08:09:15.329Z,6.13
2023-03-16T08:11:43.231Z,6.34
2023-03-16T08:14:10.726Z,6.88
2023-03-16T08:17:05.248Z,7.10
2023-03-16T08:19:32.544Z,7.30
2023-03-16T08:22:02.115Z,7.54
2023-03-16T08:24:36.653Z,7.74
2023-03-16T08:27:05.772Z,8.05
2023-03-16T08:29:34.576Z,7.41
2023-03-16T08:32:03.160Z,7.49
2023-03-16T08:34:36.247Z,7.38
2023-03-16T08:37:04.218Z,7.49
2023-03-16T08:39:31.045Z,7.98
2023-03-16T08:41:57.753Z,8.31
2023-03-16T08:44:33.087Z,7.55
2023-03-16T08:47:01.605Z,7.93
2023-03-16T08:49:29.819Z,8.47
2023-03-16T08:52:07.371Z,8.63
2023-03-16T08:54:34.885Z,8.90
2023-03-16T08:57:01.715Z,9.46
2023-03-16T08:59:30.453Z,9.71
2023-03-16T09:01:58.007Z,9.68
2023-03-16T09:04:34.486Z,9.71
2023-03-16T09:07:08.783Z,9.94
2023-03-16T09:09:36.576Z,10.33
2023-03-16T09:12:04.379Z,10.68
2023-03-16T09:14:31.214Z,10.08
2023-03-16T09:16:58.461Z,9.93
2023-03-16T09:19:25.102Z,10.37
2023-03-16T09:21:51.854Z,10.49
2023-03-16T09:24:18.584Z,10.75
2023-03-16T09:26:45.769Z,10.60
2023-03-16T09:29:13.330Z,10.46
2023-03-16T09:31:40.112Z,10.76
2023-03-16T09:34:06.890Z,10.93
2023-03-16T09:36:33.726Z,10.73
2023-03-16T09:39:00.519Z,10.69
2023-03-16T09:41:48.861Z,10.23
2023-03-16T09:44:15.737Z,10.56
2023-03-16T09:46:45.636Z,10.68
2023-03-16T09:49:17.652Z,10.78
2023-03-16T09:52:13.518Z,10.75
2023-03-16T09:55:07.391Z,10.56
2023-03-16T09:57:41.163Z,10.01
2023-03-16T10:00:25.472Z,8.51
2023-03-16T10:03:36.383Z,9.05
2023-03-16T10:06:06.724Z,9.94
2023-03-16T10:08:42.044Z,10.83
2023-03-16T10:11:42.717Z,9.51
2023-03-16T10:14:27.520Z,10.15
2023-03-16T10:17:01.208Z,11.05
2023-03-16T10:19:34.036Z,11.48
2023-03-16T10:22:06.666Z,11.80
2023-03-16T10:24:52.169Z,10.99
2023-03-16T10:27:29.904Z,9.15
2023-03-16T10:29:56.885Z,8.99
2023-03-16T10:32:29.502Z,9.38
2023-03-16T10:35:06.774Z,10.43
2023-03-16T10:37:33.975Z,11.11
2023-03-16T10:40:00.820Z,11.69
2023-03-16T10:42:27.877Z,12.34
2023-03-16T10:45:01.762Z,12.42
2023-03-16T10:47:33.703Z,11.94
2023-03-16T10:50:14.364Z,11.83
2023-03-16T10:52:45.420Z,11.94
2023-03-16T10:55:31.213Z,12.36
2023-03-16T10:57:58.396Z,12.88
2023-03-16T11:00:37.063Z,13.53
2023-03-16T11:03:20.347Z,11.82
2023-03-16T11:05:47.284Z,10.89
2023-03-16T11:08:23.033Z,10.52
2023-03-16T11:10:58.463Z,11.43
2023-03-16T11:13:34.494Z,12.09
2023-03-16T11:16:37.453Z,12.27
2023-03-16T11:19:21.470Z,12.54
2023-03-16T11:22:11.939Z,12.53
2023-03-16T11:24:45.296Z,13.02
2023-03-16T11:27:21.419Z,12.70
2023-03-16T11:29:59.512Z,12.76
2023-03-16T11:32:41.516Z,13.20
2023-03-16T11:35:19.572Z,13.10
2023-03-16T11:38:09.959Z,13.59
2023-03-16T11:40:58.512Z,14.02
2023-03-16T11:43:51.086Z,14.29
2023-03-16T11:46:36.815Z,11.99
2023-03-16T11:49:42.122Z,10.52
2023-03-16T11:52:23.478Z,9.76
2023-03-16T11:55:05.920Z,9.76
2023-03-16T11:57:56.361Z,11.13
2023-03-16T12:00:31.947Z,12.12
2023-03-16T12:03:29.156Z,12.86
2023-03-16T12:06:23.464Z,13.34
2023-03-16T12:09:08.846Z,13.52
2023-03-16T12:11:53.990Z,14.15
2023-03-16T12:14:44.252Z,14.09
2023-03-16T12:17:19.531Z,14.46
2023-03-16T12:20:04.131Z,14.77
2023-03-16T12:22:44.396Z,14.94
2023-03-16T12:25:27.405Z,13.70
2023-03-16T12:27:56.883Z,13.88
2023-03-16T12:30:38.657Z,14.29
2023-03-16T12:33:28.420Z,14.69
2023-03-16T12:36:07.245Z,14.86
2023-03-16T12:38:44.858Z,15.19
2023-03-16T12:41:26.478Z,14.72
2023-03-16T12:44:08.099Z,14.47
2023-03-16T12:46:48.729Z,13.52
2023-03-16T12:49:16.785Z,12.95
2023-03-16T12:51:43.999Z,13.01
2023-03-16T12:54:25.543Z,13.02
2023-03-16T12:56:59.919Z,12.71
2023-03-16T12:59:38.478Z,13.74
2023-03-16T13:02:15.984Z,14.28
2023-03-16T13:04:44.733Z,14.66
2023-03-16T13:07:22.734Z,14.66
2023-03-16T13:10:10.104Z,13.28
2023-03-16T13:12:40.818Z,13.73
2023-03-16T13:15:34.723Z,13.47
2023-03-16T13:18:10.480Z,14.04
2023-03-16T13:20:49.365Z,13.47
2023-03-16T13:23:24.653Z,13.82
2023-03-16T13:26:06.516Z,14.35
2023-03-16T13:28:36.785Z,13.95
2023-03-16T13:31:04.902Z,13.35
2023-03-16T13:33:36.945Z,13.53
2023-03-16T13:36:06.426Z,14.27
2023-03-16T13:38:33.371Z,14.83
2023-03-16T13:41:09.096Z,14.91
2023-03-16T13:43:39.583Z,15.57
2023-03-16T13:46:22.514Z,15.48
2023-03-16T13:48:49.858Z,14.33
2023-03-16T13:51:20.819Z,14.88
2023-03-16T13:53:49.390Z,14.51
2023-03-16T13:56:21.234Z,13.65
2023-03-16T13:58:51.805Z,14.50
2023-03-16T14:01:27.607Z,15.25
2023-03-16T14:03:58.398Z,15.66
2023-03-16T14:06:31.443Z,15.88
2023-03-16T14:09:05.469Z,15.97
2023-03-16T14:11:32.262Z,16.25
2023-03-16T14:14:00.528Z,16.52
2023-03-16T14:16:32.048Z,15.20
2023-03-16T14:19:02.972Z,15.40
2023-03-16T14:21:34.173Z,15.60
2023-03-16T14:24:16.357Z,15.96
2023-03-16T14:26:46.558Z,16.07
2023-03-16T14:29:24.983Z,16.25
2023-03-16T14:31:51.997Z,15.96
2023-03-16T14:34:41.551Z,15.60
2023-03-16T14:37:14.860Z,15.44
2023-03-16T14:39:42.215Z,15.44
2023-03-16T14:42:30.130Z,15.40
2023-03-16T14:45:02.247Z,15.79
2023-03-16T14:47:31.033Z,15.56
2023-03-16T14:50:03.206Z,15.60
2023-03-16T14:52:34.371Z,15.67
2023-03-16T14:55:09.793Z,15.57
2023-03-16T14:57:36.651Z,15.59
2023-03-16T15:00:05.510Z,15.18
2023-03-16T15:02:33.622Z,15.17
2023-03-16T15:05:02.839Z,15.47
2023-03-16T15:07:41.285Z,15.48
2023-03-16T15:10:29.410Z,15.52
2023-03-16T15:13:04.468Z,14.56
2023-03-16T15:15:32.590Z,15.08
2023-03-16T15:17:59.958Z,15.25
2023-03-16T15:20:35.336Z,15.46
2023-03-16T15:23:04.852Z,15.40
2023-03-16T15:25:42.663Z,15.48
2023-03-16T15:28:11.814Z,15.29
2023-03-16T15:30:39.132Z,15.22
2023-03-16T15:33:06.224Z,13.68
2023-03-16T15:35:32.921Z,13.09
2023-03-16T15:38:03.737Z,13.01
2023-03-16T15:40:31.449Z,13.01
2023-03-16T15:42:58.323Z,13.08
2023-03-16T15:45:25.587Z,13.09
2023-03-16T15:47:53.676Z,13.42
2023-03-16T15:50:22.369Z,13.68
2023-03-16T15:52:59.419Z,13.69
2023-03-16T15:55:39.128Z,13.62
2023-03-16T15:58:10.633Z,13.66
2023-03-16T16:00:39.582Z,13.79
2023-03-16T16:03:07.322Z,13.87
2023-03-16T16:05:34.340Z,13.85
2023-03-16T16:08:01.472Z,14.14
2023-03-16T16:10:28.936Z,14.35
2023-03-16T16:12:56.998Z,14.44
2023-03-16T16:15:28.529Z,14.89
2023-03-16T16:18:19.729Z,15.10
2023-03-16T16:20:44.879Z,15.51
2023-03-16T16:23:11.634Z,15.43
2023-03-16T16:25:41.707Z,15.76
2023-03-16T16:28:18.638Z,15.44
2023-03-16T16:30:46.291Z,15.58
2023-03-16T16:33:24.655Z,15.48
2023-03-16T16:35:52.988Z,15.30
2023-03-16T16:38:19.746Z,14.21
2023-03-16T16:40:47.559Z,13.49
2023-03-16T16:43:30.927Z,12.58
2023-03-16T16:45:59.598Z,11.98
2023-03-16T16:49:12.541Z,11.22
2023-03-16T16:51:39.466Z,10.75
2023-03-16T16:54:15.407Z,10.45
2023-03-16T16:56:42.972Z,10.13
2023-03-16T16:59:18.461Z,9.80
2023-03-16T17:01:47.221Z,9.54
2023-03-16T17:04:18.259Z,9.31
2023-03-16T17:06:46.145Z,9.03
2023-03-16T17:09:14.424Z,8.77
2023-03-16T17:11:44.827Z,8.52
2023-03-16T17:14:16.973Z,8.35
2023-03-16T17:16:44.764Z,8.17
2023-03-16T17:19:24.746Z,8.01
2023-03-16T17:21:52.799Z,7.90
2023-03-16T17:24:19.751Z,7.80
2023-03-16T17:26:52.455Z,7.60
2023-03-16T17:29:24.488Z,7.44
2023-03-16T17:31:51.627Z,7.35
2023-03-16T17:34:27.397Z,7.21
2023-03-16T17:36:54.978Z,7.18
2023-03-16T17:39:25.746Z,7.02
2023-03-16T17:42:02.778Z,6.66
2023-03-16T17:44:52.321Z,6.42
2023-03-16T17:47:22.661Z,6.24
2023-03-16T17:49:50.848Z,6.11
2023-03-16T17:52:20.579Z,6.07
2023-03-16T17:54:52.012Z,5.97
2023-03-16T17:57:24.699Z,5.85
2023-03-16T17:59:52.189Z,5.70
2023-03-16T18:02:37.363Z,5.53
2023-03-16T18:05:05.636Z,5.30
2023-03-16T18:07:32.419Z,5.06
2023-03-16T18:09:59.172Z,5.15
2023-03-16T18:12:26.370Z,5.08
2023-03-16T18:14:58.511Z,5.09
2023-03-16T18:17:28.269Z,5.13
2023-03-16T18:19:55.263Z,5.07
2023-03-16T18:22:24.656Z,5.08
2023-03-16T18:24:55.293Z,5.14
2023-03-16T18:27:22.466Z,5.04
2023-03-16T18:29:49.249Z,4.94
2023-03-16T18:32:24.862Z,4.94
2023-03-16T18:34:52.635Z,4.91
2023-03-16T18:37:23.119Z,4.82
2023-03-16T18:39:52.068Z,4.73
2023-03-16T18:42:28.741Z,4.73
2023-03-16T18:44:55.694Z,4.63
2023-03-16T18:47:24.625Z,4.56
2023-03-16T18:49:54.070Z,4.44
2023-03-16T18:52:32.952Z,4.35
2023-03-16T18:54:59.899Z,4.25
2023-03-16T18:57:29.099Z,4.15
2023-03-16T18:59:57.523Z,4.08
2023-03-16T19:02:29.480Z,4.03
2023-03-16T19:04:59.836Z,3.86
2023-03-16T19:07:38.499Z,3.85
2023-03-16T19:10:17.928Z,3.78
2023-03-16T19:12:44.841Z,3.65
2023-03-16T19:15:19.077Z,3.57
2023-03-16T19:17:47.014Z,3.33
2023-03-16T19:20:16.552Z,3.34
2023-03-16T19:22:46.025Z,3.28
2023-03-16T19:25:24.072Z,3.19
2023-03-16T19:27:51.734Z,3.17
2023-03-16T19:30:23.782Z,3.04
2023-03-16T19:32:51.296Z,3.06
2023-03-16T19:35:20.167Z,3.01
2023-03-16T19:37:47.630Z,2.89
2023-03-16T19:40:15.746Z,2.71
2023-03-16T19:42:42.977Z,2.49
2023-03-16T19:45:21.982Z,2.15
2023-03-16T19:47:49.035Z,2.02
2023-03-16T19:50:21.726Z,1.93
2023-03-16T19:52:49.109Z,1.77
2023-03-16T19:55:21.679Z,1.45
2023-03-16T19:57:54.254Z,1.31
2023-03-16T20:00:25.319Z,1.20
2023-03-16T20:02:57.837Z,1.23
2023-03-16T20:05:27.923Z,1.18
2023-03-16T20:07:59.552Z,0.92
2023-03-16T20:10:28.824Z,0.92
2023-03-16T20:13:00.351Z,0.91
2023-03-16T20:15:32.298Z,0.87
2023-03-16T20:17:59.994Z,0.71
2023-03-16T20:20:34.335Z,0.66
2023-03-16T20:23:01.704Z,0.59
2023-03-16T20:25:32.378Z,0.53
2023-03-16T20:28:02.043Z,0.49
2023-03-16T20:30:30.719Z,0.49
2023-03-16T20:32:58.711Z,0.41
2023-03-16T20:35:29.030Z,0.47
2023-03-16T20:37:56.213Z,0.45
2023-03-16T20:40:23.623Z,0.47
2023-03-16T20:42:52.216Z,0.46
2023-03-16T20:45:23.976Z,0.38
2023-03-16T20:47:52.256Z,0.39
2023-03-16T20:50:19.130Z,0.37
2023-03-16T20:52:45.900Z,0.34
2023-03-16T20:55:17.962Z,0.24
2023-03-16T20:57:44.953Z,0.18
2023-03-16T21:00:23.170Z,0.11
2023-03-16T21:02:50.027Z,0.04
2023-03-16T21:05:16.840Z,-0.08
2023-03-16T21:07:43.610Z,-0.19
2023-03-16T21:10:15.159Z,-0.28
2023-03-16T21:12:45.475Z,-0.34
2023-03-16T21:15:25.579Z,-0.44
2023-03-16T21:18:04.149Z,-0.56
2023-03-16T21:20:33.105Z,-0.64
2023-03-16T21:23:00.408Z,-0.77
2023-03-16T21:25:32.156Z,-0.75
2023-03-16T21:28:03.214Z,-0.81
2023-03-16T21:30:39.397Z,-0.86
2023-03-16T21:33:28.001Z,-0.88
2023-03-16T21:35:54.819Z,-0.90
2023-03-16T21:38:21.907Z,-0.91
2023-03-16T21:40:49.222Z,-0.94
2023-03-16T21:43:16.408Z,-0.98
2023-03-16T21:45:43.764Z,-0.98
2023-03-16T21:48:15.636Z,-1.02
2023-03-16T21:50:42.870Z,-1.05
2023-03-16T21:53:20.327Z,-1.07
2023-03-16T21:55:47.347Z,-1.10
2023-03-16T21:58:14.175Z,-1.13
2023-03-16T22:00:41.579Z,-1.17
2023-03-16T22:03:22.730Z,-1.24
2023-03-16T22:05:49.918Z,-1.28
2023-03-16T22:08:19.882Z,-1.52
2023-03-16T22:10:46.980Z,-1.95
2023-03-16T22:13:13.688Z,-1.86
2023-03-16T22:15:43.805Z,-1.92
2023-03-16T22:18:20.824Z,-2.04
2023-03-16T22:20:47.622Z,-1.86
2023-03-16T22:23:35.308Z,-1.77
2023-03-16T22:26:04.271Z,-1.75
2023-03-16T22:28:31.735Z,-1.74
2023-03-16T22:31:01.776Z,-1.72
2023-03-16T22:33:32.006Z,-1.68
2023-03-16T22:36:11.875Z,-1.74
2023-03-16T22:38:40.106Z,-1.65
2023-03-16T22:41:11.125Z,-1.62
2023-03-16T22:43:40.763Z,-1.64
2023-03-16T22:46:17.451Z,-1.66
2023-03-16T22:48:44.291Z,-1.69
2023-03-16T22:51:30.090Z,-1.87
2023-03-16T22:54:03.828Z,-1.89
2023-03-16T22:56:32.203Z,-1.91
2023-03-16T22:59:02.837Z,-1.98
2023-03-16T23:01:38.367Z,-2.03
2023-03-16T23:04:19.977Z,-2.10
2023-03-16T23:06:52.821Z,-2.13
2023-03-16T23:09:21.837Z,-2.09
2023-03-16T23:11:53.622Z,-2.07
2023-03-16T23:14:27.221Z,-2.08
2023-03-16T23:16:54.149Z,-2.10
2023-03-16T23:19:27.128Z,-2.13
2023-03-16T23:21:56.602Z,-2.14
2023-03-16T23:24:23.509Z,-2.25
2023-03-16T23:26:51.929Z,-2.22
2023-03-16T23:29:20.794Z,-2.21
2023-03-16T23:31:47.602Z,-2.31
2023-03-16T23:34:22.686Z,-2.36
2023-03-16T23:36:50.843Z,-2.31
2023-03-16T23:39:18.525Z,-2.29
2023-03-16T23:41:47.907Z,-2.31
2023-03-16T23:44:21.414Z,-2.28
2023-03-16T23:46:48.399Z,-2.29
2023-03-16T23:49:22.408Z,-2.31
2023-03-16T23:51:50.260Z,-2.37
2023-03-16T23:54:25.426Z,-2.43
2023-03-16T23:56:52.437Z,-2.46
2023-03-16T23:59:20.388Z,-2.59
